createdAt,value
2023-02-24T00:00:37.950Z,26.50
2023-02-24T00:03:11.731Z,26.07
2023-02-24T00:05:44.464Z,23.87
2023-02-24T00:08:12.525Z,25.17
2023-02-24T00:10:40.531Z,23.83
2023-02-24T00:13:08.711Z,18.57
2023-02-24T00:15:38.035Z,24.20
2023-02-24T00:18:07.223Z,22.37
2023-02-24T00:20:36.459Z,20.63
2023-02-24T00:23:05.020Z,21.20
2023-02-24T00:25:33.099Z,22.87
2023-02-24T00:28:01.795Z,20.47
2023-02-24T00:30:32.848Z,22.80
2023-02-24T00:33:03.728Z,24.87
2023-02-24T00:35:31.768Z,21.50
2023-02-24T00:37:59.807Z,22.17
2023-02-24T00:40:30.316Z,22.33
2023-02-24T00:42:59.202Z,24.10
2023-02-24T00:45:30.443Z,20.80
2023-02-24T00:47:58.434Z,22.27
2023-02-24T00:50:27.751Z,20.80
2023-02-24T00:52:55.729Z,22.97
2023-02-24T00:55:23.877Z,22.80
2023-02-24T00:57:51.916Z,21.13
2023-02-24T01:00:21.372Z,20.07
2023-02-24T01:02:49.393Z,22.97
2023-02-24T01:05:17.510Z,21.57
2023-02-24T01:07:46.992Z,19.77
2023-02-24T01:10:14.959Z,22.23
2023-02-24T01:12:50.792Z,19.97
2023-02-24T01:15:19.906Z,22.40
2023-02-24T01:17:48.253Z,19.87
2023-02-24T01:20:19.763Z,18.40
2023-02-24T01:22:50.879Z,18.10
2023-02-24T01:25:20.415Z,20.70
2023-02-24T01:27:48.692Z,19.47
2023-02-24T01:30:18.415Z,20.10
2023-02-24T01:32:48.038Z,19.93
2023-02-24T01:35:16.493Z,20.30
2023-02-24T01:37:45.435Z,19.17
2023-02-24T01:40:21.687Z,21.27
2023-02-24T01:42:50.807Z,19.10
2023-02-24T01:45:24.873Z,18.33
2023-02-24T01:47:53.993Z,18.70
2023-02-24T01:50:26.103Z,20.20
2023-02-24T01:52:58.829Z,20.10
2023-02-24T01:55:32.232Z,19.50
2023-02-24T01:58:04.952Z,22.77
2023-02-24T02:00:37.765Z,19.83
2023-02-24T02:03:15.383Z,20.10
2023-02-24T02:05:45.391Z,40.57
2023-02-24T02:08:15.013Z,41.67
2023-02-24T02:10:45.282Z,40.53
2023-02-24T02:13:15.040Z,42.40
2023-02-24T02:15:56.756Z,43.63
2023-02-24T02:18:34.514Z,45.63
2023-02-24T02:21:40.602Z,44.90
2023-02-24T02:24:32.467Z,41.70
2023-02-24T02:27:31.728Z,42.07
2023-02-24T02:30:36.507Z,40.67
2023-02-24T02:33:21.686Z,42.30
2023-02-24T02:36:00.597Z,40.07
2023-02-24T02:38:38.991Z,40.00
2023-02-24T02:41:17.778Z,40.20
2023-02-24T02:43:52.573Z,41.20
2023-02-24T02:46:34.901Z,16.67
2023-02-24T02:49:14.241Z,17.50
2023-02-24T02:51:51.694Z,16.80
2023-02-24T02:54:27.155Z,17.63
2023-02-24T02:57:01.413Z,17.37
2023-02-24T02:59:32.276Z,17.70
2023-02-24T03:02:11.839Z,17.57
2023-02-24T03:04:43.427Z,16.53
2023-02-24T03:07:15.505Z,16.77
2023-02-24T03:09:49.657Z,20.03
2023-02-24T03:12:21.449Z,18.33
2023-02-24T03:14:53.516Z,18.97
2023-02-24T03:17:25.759Z,16.33
2023-02-24T03:20:00.431Z,16.30
2023-02-24T03:22:35.478Z,17.17
2023-02-24T03:25:05.842Z,20.23
2023-02-24T03:27:42.845Z,39.73
2023-02-24T03:30:17.040Z,42.50
2023-02-24T03:32:56.134Z,38.90
2023-02-24T03:35:27.329Z,38.20
2023-02-24T03:37:59.467Z,36.67
2023-02-24T03:40:36.075Z,39.63
2023-02-24T03:43:07.652Z,38.57
2023-02-24T03:45:41.770Z,33.90
2023-02-24T03:48:12.951Z,35.17
2023-02-24T03:50:42.613Z,34.83
2023-02-24T03:53:31.146Z,36.67
2023-02-24T03:56:11.133Z,35.37
2023-02-24T03:58:47.816Z,33.67
2023-02-24T04:01:21.441Z,33.73
2023-02-24T04:04:02.677Z,35.23
2023-02-24T04:06:36.875Z,34.80
2023-02-24T04:09:13.272Z,31.77
2023-02-24T04:11:48.342Z,36.90
2023-02-24T04:14:25.108Z,33.60
2023-02-24T04:17:01.139Z,32.23
2023-02-24T04:19:33.375Z,37.03
2023-02-24T04:22:03.955Z,31.27
2023-02-24T04:24:34.799Z,31.20
2023-02-24T04:27:07.338Z,33.77
2023-02-24T04:29:40.423Z,33.00
2023-02-24T04:32:11.594Z,34.80
2023-02-24T04:34:40.438Z,35.80
2023-02-24T04:37:08.912Z,34.67
2023-02-24T04:39:38.927Z,33.97
2023-02-24T04:42:07.410Z,34.60
2023-02-24T04:44:35.694Z,37.57
2023-02-24T04:47:03.933Z,36.37
2023-02-24T04:49:31.946Z,36.23
2023-02-24T04:52:00.010Z,39.17
2023-02-24T04:54:29.758Z,39.13
2023-02-24T04:56:59.520Z,40.83
2023-02-24T04:59:29.127Z,36.13
2023-02-24T05:02:01.521Z,38.40
2023-02-24T05:04:31.862Z,37.80
2023-02-24T05:07:00.586Z,36.33
2023-02-24T05:09:30.292Z,35.93
2023-02-24T05:12:01.745Z,36.73
2023-02-24T05:14:31.085Z,38.27
2023-02-24T05:17:00.525Z,36.10
2023-02-24T05:19:46.334Z,36.77
2023-02-24T05:22:16.999Z,37.30
2023-02-24T05:24:48.010Z,35.73
2023-02-24T05:27:17.571Z,32.83
2023-02-24T05:29:45.853Z,33.50
2023-02-24T05:32:16.744Z,33.80
2023-02-24T05:34:44.986Z,37.90
2023-02-24T05:37:16.438Z,33.30
2023-02-24T05:39:44.410Z,32.37
2023-02-24T05:42:12.947Z,35.07
2023-02-24T05:44:42.249Z,38.23
2023-02-24T05:47:10.519Z,38.00
2023-02-24T05:49:38.938Z,33.93
2023-02-24T05:52:09.617Z,32.67
2023-02-24T05:54:40.386Z,34.80
2023-02-24T05:57:11.997Z,33.70
2023-02-24T05:59:42.322Z,33.03
2023-02-24T06:02:12.947Z,34.60
2023-02-24T06:04:51.212Z,35.53
2023-02-24T06:07:24.745Z,34.17
2023-02-24T06:09:56.578Z,35.10
2023-02-24T06:12:27.349Z,38.43
2023-02-24T06:14:58.143Z,35.27
2023-02-24T06:17:26.102Z,34.60
2023-02-24T06:19:55.308Z,32.67
2023-02-24T06:22:25.171Z,36.40
2023-02-24T06:24:55.392Z,35.07
2023-02-24T06:27:24.959Z,32.90
2023-02-24T06:29:54.925Z,34.30
2023-02-24T06:32:27.052Z,33.70
2023-02-24T06:34:57.224Z,34.10
2023-02-24T06:37:25.450Z,16.00
2023-02-24T06:39:53.433Z,14.77
2023-02-24T06:42:21.379Z,17.20
2023-02-24T06:44:50.425Z,15.83
2023-02-24T06:47:18.416Z,14.93
2023-02-24T06:49:47.964Z,16.20
2023-02-24T06:52:19.223Z,14.37
2023-02-24T06:54:49.733Z,15.63
2023-02-24T06:57:20.364Z,15.97
2023-02-24T06:59:48.999Z,15.17
2023-02-24T07:02:17.852Z,17.70
2023-02-24T07:04:47.680Z,18.87
2023-02-24T07:07:17.399Z,20.70
2023-02-24T07:09:45.756Z,13.17
2023-02-24T07:12:15.661Z,14.97
2023-02-24T07:14:44.099Z,20.07
2023-02-24T07:17:14.720Z,33.83
2023-02-24T07:19:42.759Z,31.00
2023-02-24T07:22:14.746Z,31.77
2023-02-24T07:24:46.268Z,32.20
2023-02-24T07:27:22.108Z,31.70
2023-02-24T07:29:52.922Z,32.20
2023-02-24T07:32:23.397Z,30.83
2023-02-24T07:34:51.461Z,31.97
2023-02-24T07:37:21.148Z,35.27
2023-02-24T07:39:49.173Z,37.20
2023-02-24T07:42:17.192Z,38.83
2023-02-24T07:44:46.710Z,34.47
2023-02-24T07:47:15.922Z,36.07
2023-02-24T07:49:45.273Z,41.73
2023-02-24T07:52:13.417Z,35.43
2023-02-24T07:54:43.194Z,31.63
2023-02-24T07:57:14.182Z,17.20
2023-02-24T07:59:47.637Z,17.07
2023-02-24T08:02:16.531Z,19.90
2023-02-24T08:04:50.073Z,18.93
2023-02-24T08:07:24.516Z,19.07
2023-02-24T08:10:12.258Z,15.83
2023-02-24T08:12:43.438Z,19.33
2023-02-24T08:15:21.928Z,17.93
2023-02-24T08:17:49.984Z,23.90
2023-02-24T08:20:25.995Z,17.93
2023-02-24T08:22:55.419Z,19.87
2023-02-24T08:25:36.504Z,19.13
2023-02-24T08:28:09.204Z,16.00
2023-02-24T08:30:40.910Z,19.20
2023-02-24T08:33:11.397Z,20.30
2023-02-24T08:35:45.082Z,16.10
2023-02-24T08:38:15.685Z,16.17
2023-02-24T08:40:52.513Z,21.03
2023-02-24T08:43:32.801Z,18.50
2023-02-24T08:46:06.559Z,29.63
2023-02-24T08:48:39.073Z,21.27
2023-02-24T08:51:11.669Z,33.03
2023-02-24T08:53:41.395Z,22.00
2023-02-24T08:56:13.631Z,22.50
2023-02-24T08:58:47.320Z,40.47
2023-02-24T09:01:24.421Z,40.50
2023-02-24T09:03:55.326Z,38.00
2023-02-24T09:06:27.623Z,38.07
2023-02-24T09:09:11.406Z,38.60
2023-02-24T09:11:44.255Z,44.30
2023-02-24T09:14:32.216Z,42.17
2023-02-24T09:17:03.810Z,40.90
2023-02-24T09:20:01.913Z,46.57
2023-02-24T09:22:57.300Z,31.33
2023-02-24T09:25:40.436Z,22.50
2023-02-24T09:28:17.404Z,21.13
2023-02-24T09:30:54.248Z,40.57
2023-02-24T09:33:25.853Z,44.70
2023-02-24T09:36:10.661Z,49.73
2023-02-24T09:38:59.740Z,45.57
2023-02-24T09:41:53.270Z,49.00
2023-02-24T09:44:29.583Z,46.93
2023-02-24T09:47:09.137Z,49.63
2023-02-24T09:49:47.810Z,47.87
2023-02-24T09:52:19.073Z,49.47
2023-02-24T09:55:14.659Z,50.47
2023-02-24T09:58:12.943Z,47.63
2023-02-24T10:00:51.842Z,53.23
2023-02-24T10:03:41.635Z,48.67
2023-02-24T10:06:20.850Z,54.27
2023-02-24T10:08:55.762Z,50.07
2023-02-24T10:11:33.866Z,55.07
2023-02-24T10:14:05.448Z,54.67
2023-02-24T10:17:08.376Z,49.87
2023-02-24T10:19:36.339Z,50.13
2023-02-24T10:22:23.163Z,57.47
2023-02-24T10:25:01.503Z,58.47
2023-02-24T10:27:39.532Z,51.27
2023-02-24T10:30:19.873Z,58.53
2023-02-24T10:32:58.820Z,49.80
2023-02-24T10:35:33.592Z,53.90
2023-02-24T10:38:05.367Z,53.47
2023-02-24T10:40:45.118Z,53.03
2023-02-24T10:43:19.513Z,54.13
2023-02-24T10:45:48.820Z,59.90
2023-02-24T10:48:40.403Z,54.03
2023-02-24T10:51:19.807Z,50.83
2023-02-24T10:54:10.138Z,47.97
2023-02-24T10:56:44.569Z,46.30
2023-02-24T10:59:41.226Z,50.83
2023-02-24T11:02:32.745Z,49.13
2023-02-24T11:05:27.252Z,53.90
2023-02-24T11:08:09.532Z,52.63
2023-02-24T11:10:53.267Z,56.87
2023-02-24T11:13:39.324Z,54.30
2023-02-24T11:16:28.308Z,55.10
2023-02-24T11:18:58.259Z,53.10
2023-02-24T11:21:28.966Z,51.17
2023-02-24T11:24:02.717Z,51.70
2023-02-24T11:26:37.031Z,51.40
2023-02-24T11:29:32.356Z,54.60
2023-02-24T11:32:15.488Z,48.28
2023-02-24T11:34:53.617Z,52.47
2023-02-24T11:37:36.051Z,50.88
2023-02-24T11:40:09.505Z,50.80
2023-02-24T11:42:42.036Z,49.03
2023-02-24T11:45:22.882Z,50.53
2023-02-24T11:47:56.380Z,50.77
2023-02-24T11:50:34.007Z,49.70
2023-02-24T11:53:09.011Z,41.33
2023-02-24T11:55:43.120Z,39.80
2023-02-24T11:58:21.004Z,33.77
2023-02-24T12:00:55.946Z,37.87
2023-02-24T12:03:30.843Z,29.52
2023-02-24T12:06:09.096Z,29.50
2023-02-24T12:08:40.967Z,35.03
2023-02-24T12:11:15.616Z,30.10
2023-02-24T12:13:51.227Z,36.10
2023-02-24T12:16:24.050Z,35.17
2023-02-24T12:18:59.147Z,33.22
2023-02-24T12:21:33.848Z,40.30
2023-02-24T12:24:08.499Z,31.63
2023-02-24T12:26:43.631Z,29.73
2023-02-24T12:29:42.366Z,35.30
2023-02-24T12:32:21.043Z,41.97
2023-02-24T12:34:57.984Z,27.60
2023-02-24T12:37:50.608Z,41.60
2023-02-24T12:40:32.607Z,31.13
2023-02-24T12:43:11.057Z,45.22
2023-02-24T12:45:50.180Z,33.17
2023-02-24T12:48:33.569Z,32.13
2023-02-24T12:51:08.619Z,30.88
2023-02-24T12:53:47.388Z,33.78
2023-02-24T12:56:22.796Z,26.52
2023-02-24T12:58:54.354Z,28.35
2023-02-24T13:01:28.820Z,25.77
2023-02-24T13:04:18.988Z,41.17
2023-02-24T13:06:59.468Z,25.40
2023-02-24T13:09:35.846Z,30.17
2023-02-24T13:12:12.369Z,25.25
2023-02-24T13:14:41.971Z,26.98
2023-02-24T13:17:22.459Z,27.13
2023-02-24T13:19:53.061Z,30.92
2023-02-24T13:22:25.248Z,24.02
2023-02-24T13:25:18.587Z,25.85
2023-02-24T13:27:57.694Z,21.85
2023-02-24T13:30:30.485Z,31.15
2023-02-24T13:33:05.690Z,31.58
2023-02-24T13:35:37.436Z,35.72
2023-02-24T13:38:24.002Z,45.22
2023-02-24T13:40:52.530Z,40.47
2023-02-24T13:43:28.571Z,34.53
2023-02-24T13:46:00.624Z,38.33
2023-02-24T13:48:46.370Z,36.60
2023-02-24T13:51:31.195Z,32.22
2023-02-24T13:54:12.748Z,39.28
2023-02-24T13:56:45.633Z,38.50
2023-02-24T13:59:42.588Z,35.72
2023-02-24T14:02:18.278Z,27.52
2023-02-24T14:04:49.771Z,38.35
2023-02-24T14:07:23.143Z,29.08
2023-02-24T14:09:55.387Z,29.75
2023-02-24T14:12:26.800Z,34.88
2023-02-24T14:14:57.510Z,36.58
2023-02-24T14:17:28.762Z,35.17
2023-02-24T14:20:08.820Z,38.05
2023-02-24T14:22:44.611Z,34.08
2023-02-24T14:25:15.829Z,30.55
2023-02-24T14:27:45.906Z,39.17
2023-02-24T14:30:26.000Z,40.95
2023-02-24T14:32:54.510Z,42.38
2023-02-24T14:35:28.800Z,39.63
2023-02-24T14:37:57.639Z,33.40
2023-02-24T14:40:26.052Z,28.73
2023-02-24T14:42:57.232Z,27.10
2023-02-24T14:45:28.806Z,25.00
2023-02-24T14:47:57.832Z,24.52
2023-02-24T14:50:29.014Z,22.50
2023-02-24T14:53:01.380Z,22.50
2023-02-24T14:55:31.249Z,23.80
2023-02-24T14:58:03.078Z,29.75
2023-02-24T15:00:36.363Z,26.08
2023-02-24T15:03:12.453Z,29.10
2023-02-24T15:05:45.940Z,25.38
2023-02-24T15:08:28.396Z,24.40
2023-02-24T15:10:56.732Z,26.42
2023-02-24T15:13:31.419Z,26.30
2023-02-24T15:16:07.180Z,26.35
2023-02-24T15:18:35.261Z,24.00
2023-02-24T15:21:05.449Z,25.45
2023-02-24T15:23:35.172Z,23.60
2023-02-24T15:26:04.524Z,24.10
2023-02-24T15:28:34.828Z,27.00
2023-02-24T15:31:09.793Z,26.43
2023-02-24T15:33:40.410Z,25.83
2023-02-24T15:36:12.447Z,22.87
2023-02-24T15:38:42.437Z,28.07
2023-02-24T15:41:12.101Z,21.77
2023-02-24T15:43:47.355Z,26.93
2023-02-24T15:46:26.228Z,22.27
2023-02-24T15:48:56.386Z,24.40
2023-02-24T15:51:33.311Z,23.60
2023-02-24T15:54:02.486Z,30.47
2023-02-24T15:56:32.958Z,26.13
2023-02-24T15:59:02.693Z,25.27
2023-02-24T16:01:32.661Z,24.20
2023-02-24T16:04:01.159Z,26.17
2023-02-24T16:06:29.895Z,25.57
2023-02-24T16:08:59.147Z,27.13
2023-02-24T16:11:32.789Z,26.55
2023-02-24T16:14:01.675Z,28.17
2023-02-24T16:16:33.363Z,24.50
2023-02-24T16:19:01.466Z,24.93
2023-02-24T16:21:30.400Z,26.40
2023-02-24T16:23:58.368Z,29.65
2023-02-24T16:26:26.489Z,24.48
2023-02-24T16:28:56.589Z,26.88
2023-02-24T16:31:26.116Z,27.60
2023-02-24T16:33:56.463Z,42.30
2023-02-24T16:36:26.286Z,46.83
2023-02-24T16:38:54.574Z,49.22
2023-02-24T16:41:23.464Z,49.05
2023-02-24T16:43:51.759Z,44.42
2023-02-24T16:46:22.988Z,48.00
2023-02-24T16:48:53.347Z,47.65
2023-02-24T16:51:23.437Z,46.63
2023-02-24T16:53:51.383Z,50.60
2023-02-24T16:56:19.580Z,49.43
2023-02-24T16:58:47.704Z,48.83
2023-02-24T17:01:21.122Z,49.17
2023-02-24T17:03:51.342Z,51.83
2023-02-24T17:06:21.949Z,53.20
2023-02-24T17:08:51.966Z,160.13
2023-02-24T17:11:21.928Z,28.67
2023-02-24T17:13:49.930Z,36.80
2023-02-24T17:16:18.025Z,29.37
2023-02-24T17:18:46.064Z,28.10
2023-02-24T17:21:15.254Z,26.90
2023-02-24T17:23:43.702Z,26.47
2023-02-24T17:26:15.928Z,28.17
2023-02-24T17:28:44.118Z,36.30
2023-02-24T17:31:12.518Z,40.73
2023-02-24T17:33:41.010Z,38.43
2023-02-24T17:36:09.083Z,32.43
2023-02-24T17:38:37.109Z,33.57
2023-02-24T17:41:05.198Z,32.97
2023-02-24T17:43:34.582Z,31.40
2023-02-24T17:46:06.635Z,31.87
2023-02-24T17:48:35.517Z,34.43
2023-02-24T17:51:03.500Z,31.63
2023-02-24T17:53:32.222Z,29.40
2023-02-24T17:56:04.813Z,29.80
2023-02-24T17:58:34.698Z,31.93
2023-02-24T18:01:03.392Z,32.93
2023-02-24T18:03:32.011Z,33.27
2023-02-24T18:06:00.972Z,32.13
2023-02-24T18:08:30.505Z,33.83
2023-02-24T18:10:59.988Z,31.70
2023-02-24T18:13:28.458Z,33.40
2023-02-24T18:15:58.384Z,30.10
2023-02-24T18:18:27.107Z,35.23
2023-02-24T18:21:00.676Z,31.37
2023-02-24T18:23:28.716Z,48.53
2023-02-24T18:25:56.751Z,34.27
2023-02-24T18:28:24.694Z,31.87
2023-02-24T18:30:52.784Z,33.17
2023-02-24T18:33:22.353Z,36.90
2023-02-24T18:35:58.430Z,33.33
2023-02-24T18:38:26.543Z,32.63
2023-02-24T18:41:02.360Z,27.23
2023-02-24T18:43:31.217Z,35.53
2023-02-24T18:46:00.202Z,28.93
2023-02-24T18:48:30.371Z,33.23
2023-02-24T18:50:59.588Z,30.50
2023-02-24T18:53:29.482Z,30.07
2023-02-24T18:56:00.789Z,31.90
2023-02-24T18:58:29.388Z,29.30
2023-02-24T19:00:57.974Z,30.23
2023-02-24T19:03:26.082Z,26.67
2023-02-24T19:05:55.411Z,29.63
2023-02-24T19:08:23.386Z,28.37
2023-02-24T19:10:51.369Z,26.63
2023-02-24T19:13:19.329Z,26.80
2023-02-24T19:15:48.404Z,28.27
2023-02-24T19:18:17.015Z,25.40
2023-02-24T19:20:45.277Z,30.17
2023-02-24T19:23:14.695Z,27.67
2023-02-24T19:25:42.657Z,24.03
2023-02-24T19:28:10.632Z,27.90
2023-02-24T19:30:39.965Z,29.50
2023-02-24T19:33:09.635Z,23.50
2023-02-24T19:35:41.033Z,49.47
2023-02-24T19:38:09.052Z,53.37
2023-02-24T19:40:38.404Z,51.57
2023-02-24T19:43:06.734Z,51.17
2023-02-24T19:45:34.944Z,54.87
2023-02-24T19:48:02.908Z,49.80
2023-02-24T19:50:30.954Z,50.83
2023-02-24T19:52:58.937Z,55.17
2023-02-24T19:55:26.931Z,52.63
2023-02-24T19:57:56.758Z,51.80
2023-02-24T20:00:25.066Z,52.47
2023-02-24T20:02:53.351Z,52.37
2023-02-24T20:05:21.463Z,25.53
2023-02-24T20:07:49.472Z,29.07
2023-02-24T20:10:18.292Z,28.30
2023-02-24T20:12:46.785Z,25.57
2023-02-24T20:15:18.489Z,29.93
2023-02-24T20:17:48.895Z,25.23
2023-02-24T20:20:17.908Z,28.70
2023-02-24T20:22:45.894Z,28.93
2023-02-24T20:25:15.385Z,25.70
2023-02-24T20:27:43.424Z,24.57
2023-02-24T20:30:12.709Z,24.23
2023-02-24T20:32:42.267Z,26.23
2023-02-24T20:35:11.290Z,26.83
2023-02-24T20:37:39.336Z,25.93
2023-02-24T20:40:09.034Z,27.93
2023-02-24T20:42:37.007Z,26.53
2023-02-24T20:45:05.452Z,24.87
2023-02-24T20:47:33.518Z,24.53
2023-02-24T20:50:03.207Z,27.83
2023-02-24T20:52:31.217Z,26.60
2023-02-24T20:54:59.339Z,27.23
2023-02-24T20:57:27.344Z,27.40
2023-02-24T21:00:03.534Z,25.40
2023-02-24T21:02:31.955Z,27.37
2023-02-24T21:05:00.017Z,25.57
2023-02-24T21:07:29.403Z,24.47
2023-02-24T21:09:57.409Z,22.77
2023-02-24T21:12:25.463Z,24.23
2023-02-24T21:14:53.444Z,26.37
2023-02-24T21:17:21.499Z,28.40
2023-02-24T21:19:49.830Z,28.53
2023-02-24T21:22:17.917Z,28.10
2023-02-24T21:24:47.364Z,24.33
2023-02-24T21:27:15.341Z,23.13
2023-02-24T21:29:44.650Z,25.50
2023-02-24T21:32:14.369Z,22.17
2023-02-24T21:34:42.587Z,26.67
2023-02-24T21:37:10.563Z,26.97
2023-02-24T21:39:38.603Z,24.87
2023-02-24T21:42:08.468Z,25.53
2023-02-24T21:44:36.413Z,24.60
2023-02-24T21:47:04.683Z,23.57
2023-02-24T21:49:33.185Z,24.73
2023-02-24T21:52:01.562Z,23.07
2023-02-24T21:54:30.881Z,24.93
2023-02-24T21:56:58.844Z,27.00
2023-02-24T21:59:28.215Z,24.37
2023-02-24T22:01:56.278Z,26.30
2023-02-24T22:04:24.657Z,22.93
2023-02-24T22:06:52.720Z,24.30
2023-02-24T22:09:20.792Z,25.17
2023-02-24T22:11:49.708Z,25.10
2023-02-24T22:14:18.286Z,25.73
2023-02-24T22:16:47.633Z,44.17
2023-02-24T22:19:15.621Z,25.17
2023-02-24T22:21:43.595Z,25.27
2023-02-24T22:24:14.043Z,25.83
2023-02-24T22:26:42.592Z,22.40
2023-02-24T22:29:11.006Z,24.20
2023-02-24T22:31:39.692Z,25.67
2023-02-24T22:34:09.267Z,27.17
2023-02-24T22:36:38.419Z,25.27
2023-02-24T22:39:09.274Z,24.53
2023-02-24T22:41:38.187Z,25.77
2023-02-24T22:44:06.756Z,23.97
2023-02-24T22:46:36.882Z,24.67
2023-02-24T22:49:05.288Z,24.90
2023-02-24T22:51:34.710Z,27.00
2023-02-24T22:54:02.734Z,26.00
2023-02-24T22:56:31.562Z,25.23
2023-02-24T22:59:00.598Z,23.13
2023-02-24T23:01:30.639Z,23.30
2023-02-24T23:04:01.303Z,24.33
2023-02-24T23:06:30.366Z,38.73
2023-02-24T23:09:01.588Z,22.10
2023-02-24T23:11:32.039Z,21.77
2023-02-24T23:14:02.185Z,21.93
2023-02-24T23:16:33.049Z,45.03
2023-02-24T23:19:04.311Z,46.57
2023-02-24T23:21:34.895Z,47.47
2023-02-24T23:24:04.885Z,47.80
2023-02-24T23:26:34.212Z,46.67
2023-02-24T23:29:02.327Z,49.73
2023-02-24T23:31:30.793Z,45.47
2023-02-24T23:33:59.521Z,48.17
2023-02-24T23:36:27.773Z,46.37
2023-02-24T23:38:57.320Z,42.47
2023-02-24T23:41:26.712Z,41.57
2023-02-24T23:43:54.833Z,24.67
2023-02-24T23:46:23.681Z,25.07
2023-02-24T23:48:53.589Z,23.40
2023-02-24T23:51:21.793Z,25.23
2023-02-24T23:53:49.960Z,23.60
2023-02-24T23:56:19.566Z,22.33
2023-02-24T23:58:52.949Z,24.03
